sensor_id;sensor_type;location;lat;lon;timestamp;pressure;altitude;pressure_sealevel;temperature;humidity
73267;BME280;61495;53.400;7.608;2022-07-29T00:01:33;101970.72;;;13.40;67.58
73267;BME280;61495;53.400;7.608;2022-07-29T00:03:58;102020.44;;;13.71;67.94
73267;BME280;61495;53.400;7.608;2022-07-29T00:06:23;102040.41;;;13.83;68.16
73267;BME280;61495;53.400;7.608;2022-07-29T00:08:49;102040.81;;;13.80;68.68
73267;BME280;61495;53.400;7.608;2022-07-29T00:11:14;102025.00;;;13.71;67.72
73267;BME280;61495;53.400;7.608;2022-07-29T00:13:40;102031.22;;;13.71;67.58
73267;BME280;61495;53.400;7.608;2022-07-29T00:16:05;102027.69;;;13.71;68.40
73267;BME280;61495;53.400;7.608;2022-07-29T00:18:31;102029.53;;;13.70;68.00
73267;BME280;61495;53.400;7.608;2022-07-29T00:20:56;102027.88;;;13.69;69.86
73267;BME280;61495;53.400;7.608;2022-07-29T00:23:22;101992.94;;;13.48;67.60
73267;BME280;61495;53.400;7.608;2022-07-29T00:25:47;102020.56;;;13.63;67.81
73267;BME280;61495;53.400;7.608;2022-07-29T00:28:12;102000.44;;;13.53;69.34
73267;BME280;61495;53.400;7.608;2022-07-29T00:30:38;101996.66;;;13.47;69.78
73267;BME280;61495;53.400;7.608;2022-07-29T00:33:03;102021.63;;;13.62;68.71
73267;BME280;61495;53.400;7.608;2022-07-29T00:35:29;102024.94;;;13.64;69.88
73267;BME280;61495;53.400;7.608;2022-07-29T00:38:13;102005.88;;;13.59;68.36
73267;BME280;61495;53.400;7.608;2022-07-29T00:40:40;101999.59;;;13.52;69.13
73267;BME280;61495;53.400;7.608;2022-07-29T00:43:05;102014.72;;;13.53;69.35
73267;BME280;61495;53.400;7.608;2022-07-29T00:45:31;101990.00;;;13.43;69.07
73267;BME280;61495;53.400;7.608;2022-07-29T00:47:56;101980.03;;;13.37;69.15
73267;BME280;61495;53.400;7.608;2022-07-29T00:50:22;102012.03;;;13.53;69.53
73267;BME280;61495;53.400;7.608;2022-07-29T00:52:48;101993.09;;;13.40;69.66
73267;BME280;61495;53.400;7.608;2022-07-29T00:55:15;101992.91;;;13.42;68.92
73267;BME280;61495;53.400;7.608;2022-07-29T00:57:42;102004.09;;;13.45;69.03
73267;BME280;61495;53.400;7.608;2022-07-29T01:00:10;101987.53;;;13.42;69.97
73267;BME280;61495;53.400;7.608;2022-07-29T01:02:36;101993.75;;;13.42;69.32
73267;BME280;61495;53.400;7.608;2022-07-29T01:05:03;101977.72;;;13.34;70.92
73267;BME280;61495;53.400;7.608;2022-07-29T01:07:30;101999.53;;;13.46;69.68
73267;BME280;61495;53.400;7.608;2022-07-29T01:09:57;101979.97;;;13.30;70.42
73267;BME280;61495;53.400;7.608;2022-07-29T01:12:27;101977.09;;;13.32;70.34
73267;BME280;61495;53.400;7.608;2022-07-29T01:14:55;101973.00;;;13.36;70.81
73267;BME280;61495;53.400;7.608;2022-07-29T01:17:26;101978.22;;;13.44;70.74
73267;BME280;61495;53.400;7.608;2022-07-29T01:25:19;101980.91;;;13.44;70.43
73267;BME280;61495;53.400;7.608;2022-07-29T01:30:32;101953.06;;;13.30;70.43
73267;BME280;61495;53.400;7.608;2022-07-29T01:33:07;101963.69;;;13.39;71.27
73267;BME280;61495;53.400;7.608;2022-07-29T01:35:44;101970.53;;;13.41;71.35
73267;BME280;61495;53.400;7.608;2022-07-29T01:38:17;101927.31;;;13.15;70.98
73267;BME280;61495;53.400;7.608;2022-07-29T01:40:52;101963.09;;;13.43;71.22
73267;BME280;61495;53.400;7.608;2022-07-29T01:43:21;101951.47;;;13.36;70.50
73267;BME280;61495;53.400;7.608;2022-07-29T01:45:53;101895.31;;;13.05;71.60
73267;BME280;61495;53.400;7.608;2022-07-29T01:53:34;101940.53;;;13.44;71.54
73267;BME280;61495;53.400;7.608;2022-07-29T01:56:01;101926.56;;;13.34;72.89
73267;BME280;61495;53.400;7.608;2022-07-29T01:58:29;101929.94;;;13.36;71.88
73267;BME280;61495;53.400;7.608;2022-07-29T02:00:57;101935.31;;;13.36;70.61
73267;BME280;61495;53.400;7.608;2022-07-29T02:03:24;101937.38;;;13.41;71.08
73267;BME280;61495;53.400;7.608;2022-07-29T02:05:52;101939.91;;;13.42;70.90
73267;BME280;61495;53.400;7.608;2022-07-29T02:08:19;101915.19;;;13.32;72.56
73267;BME280;61495;53.400;7.608;2022-07-29T02:10:47;101903.81;;;13.30;71.93
73267;BME280;61495;53.400;7.608;2022-07-29T02:13:15;101900.28;;;13.29;72.13
73267;BME280;61495;53.400;7.608;2022-07-29T02:15:42;101890.09;;;13.25;71.65
73267;BME280;61495;53.400;7.608;2022-07-29T02:18:20;101901.72;;;13.32;72.57
73267;BME280;61495;53.400;7.608;2022-07-29T02:20:50;101902.56;;;13.32;71.74
73267;BME280;61495;53.400;7.608;2022-07-29T02:23:20;101905.69;;;13.36;72.23
73267;BME280;61495;53.400;7.608;2022-07-29T02:25:49;101908.00;;;13.39;72.13
73267;BME280;61495;53.400;7.608;2022-07-29T02:28:17;101884.25;;;13.21;72.48
73267;BME280;61495;53.400;7.608;2022-07-29T02:30:44;101907.56;;;13.35;72.53
73267;BME280;61495;53.400;7.608;2022-07-29T02:33:13;101904.25;;;13.40;72.06
73267;BME280;61495;53.400;7.608;2022-07-29T02:35:40;101897.22;;;13.39;72.11
73267;BME280;61495;53.400;7.608;2022-07-29T02:38:08;101844.38;;;13.04;72.06
73267;BME280;61495;53.400;7.608;2022-07-29T02:40:53;101873.94;;;13.25;72.54
73267;BME280;61495;53.400;7.608;2022-07-29T02:43:20;101902.22;;;13.42;72.68
73267;BME280;61495;53.400;7.608;2022-07-29T02:45:51;101903.22;;;13.41;74.17
73267;BME280;61495;53.400;7.608;2022-07-29T02:48:22;101901.56;;;13.40;71.96
73267;BME280;61495;53.400;7.608;2022-07-29T02:50:58;101906.31;;;13.38;72.61
73267;BME280;61495;53.400;7.608;2022-07-29T02:53:26;101886.38;;;13.26;72.66
73267;BME280;61495;53.400;7.608;2022-07-29T02:56:07;101884.56;;;13.33;73.19
73267;BME280;61495;53.400;7.608;2022-07-29T02:58:34;101904.72;;;13.50;72.96
73267;BME280;61495;53.400;7.608;2022-07-29T03:01:10;101898.47;;;13.43;73.51
73267;BME280;61495;53.400;7.608;2022-07-29T03:03:37;101890.22;;;13.45;72.58
73267;BME280;61495;53.400;7.608;2022-07-29T03:06:05;101881.69;;;13.41;72.48
73267;BME280;61495;53.400;7.608;2022-07-29T03:08:32;101877.72;;;13.37;73.00
73267;BME280;61495;53.400;7.608;2022-07-29T03:11:00;101859.06;;;13.29;72.77
73267;BME280;61495;53.400;7.608;2022-07-29T03:13:27;101881.47;;;13.43;72.43
73267;BME280;61495;53.400;7.608;2022-07-29T03:15:53;101878.16;;;13.41;72.17
73267;BME280;61495;53.400;7.608;2022-07-29T03:18:19;101867.75;;;13.31;73.34
73267;BME280;61495;53.400;7.608;2022-07-29T03:20:44;101879.63;;;13.43;73.45
73267;BME280;61495;53.400;7.608;2022-07-29T03:23:10;101881.53;;;13.49;73.45
73267;BME280;61495;53.400;7.608;2022-07-29T03:25:36;101872.59;;;13.42;72.57
73267;BME280;61495;53.400;7.608;2022-07-29T03:28:01;101869.06;;;13.42;72.76
73267;BME280;61495;53.400;7.608;2022-07-29T03:30:27;101850.59;;;13.32;72.91
73267;BME280;61495;53.400;7.608;2022-07-29T03:32:55;101893.16;;;13.56;72.52
73267;BME280;61495;53.400;7.608;2022-07-29T03:35:21;101873.00;;;13.46;72.51
73267;BME280;61495;53.400;7.608;2022-07-29T03:37:47;101885.09;;;13.56;72.90
73267;BME280;61495;53.400;7.608;2022-07-29T03:40:16;101863.69;;;13.48;73.09
73267;BME280;61495;53.400;7.608;2022-07-29T03:42:43;101871.59;;;13.50;73.78
73267;BME280;61495;53.400;7.608;2022-07-29T03:45:15;101858.72;;;13.45;73.65
73267;BME280;61495;53.400;7.608;2022-07-29T03:47:46;101847.94;;;13.39;72.66
73267;BME280;61495;53.400;7.608;2022-07-29T03:50:14;101855.84;;;13.47;72.19
73267;BME280;61495;53.400;7.608;2022-07-29T03:52:40;101879.47;;;13.58;72.00
73267;BME280;61495;53.400;7.608;2022-07-29T03:55:07;101867.88;;;13.57;73.14
73267;BME280;61495;53.400;7.608;2022-07-29T03:57:34;101867.47;;;13.54;72.37
73267;BME280;61495;53.400;7.608;2022-07-29T04:00:00;101847.53;;;13.48;73.07
73267;BME280;61495;53.400;7.608;2022-07-29T04:02:27;101850.00;;;13.43;72.71
73267;BME280;61495;53.400;7.608;2022-07-29T04:04:52;101856.25;;;13.50;72.13
73267;BME280;61495;53.400;7.608;2022-07-29T04:07:18;101862.09;;;13.54;72.24
73267;BME280;61495;53.400;7.608;2022-07-29T04:09:43;101845.03;;;13.40;72.15
73267;BME280;61495;53.400;7.608;2022-07-29T04:12:09;101864.78;;;13.54;72.66
73267;BME280;61495;53.400;7.608;2022-07-29T04:14:35;101863.72;;;13.55;72.54
73267;BME280;61495;53.400;7.608;2022-07-29T04:17:02;101859.97;;;13.49;72.83
73267;BME280;61495;53.400;7.608;2022-07-29T04:19:28;101855.88;;;13.53;72.85
73267;BME280;61495;53.400;7.608;2022-07-29T04:21:54;101868.72;;;13.58;72.39
73267;BME280;61495;53.400;7.608;2022-07-29T04:24:19;101859.56;;;13.52;72.54
73267;BME280;61495;53.400;7.608;2022-07-29T04:26:46;101867.88;;;13.57;72.08
73267;BME280;61495;53.400;7.608;2022-07-29T04:29:11;101858.56;;;13.53;72.62
73267;BME280;61495;53.400;7.608;2022-07-29T04:31:39;101869.75;;;13.63;72.57
73267;BME280;61495;53.400;7.608;2022-07-29T04:34:05;101836.78;;;13.48;72.54
73267;BME280;61495;53.400;7.608;2022-07-29T04:36:30;101821.03;;;13.45;72.18
73267;BME280;61495;53.400;7.608;2022-07-29T04:38:55;101838.03;;;13.52;72.89
73267;BME280;61495;53.400;7.608;2022-07-29T04:41:21;101853.00;;;13.61;72.44
73267;BME280;61495;53.400;7.608;2022-07-29T04:43:46;101845.28;;;13.52;72.83
73267;BME280;61495;53.400;7.608;2022-07-29T04:46:12;101842.63;;;13.58;72.74
73267;BME280;61495;53.400;7.608;2022-07-29T04:48:37;101843.44;;;13.59;73.21
73267;BME280;61495;53.400;7.608;2022-07-29T04:51:03;101854.44;;;13.64;73.11
73267;BME280;61495;53.400;7.608;2022-07-29T04:53:28;101837.44;;;13.57;72.60
73267;BME280;61495;53.400;7.608;2022-07-29T04:55:53;101851.56;;;13.65;72.86
73267;BME280;61495;53.400;7.608;2022-07-29T04:58:19;101843.06;;;13.62;73.45
73267;BME280;61495;53.400;7.608;2022-07-29T05:00:44;101834.53;;;13.58;72.71
73267;BME280;61495;53.400;7.608;2022-07-29T05:03:10;101840.34;;;13.62;72.53
73267;BME280;61495;53.400;7.608;2022-07-29T05:05:35;101789.91;;;13.29;72.65
73267;BME280;61495;53.400;7.608;2022-07-29T05:08:01;101836.00;;;13.61;72.47
73267;BME280;61495;53.400;7.608;2022-07-29T05:10:26;101854.69;;;13.75;72.47
73267;BME280;61495;53.400;7.608;2022-07-29T05:12:51;101853.47;;;13.84;72.27
73267;BME280;61495;53.400;7.608;2022-07-29T05:15:17;101834.59;;;13.71;73.74
73267;BME280;61495;53.400;7.608;2022-07-29T05:17:44;101855.13;;;13.85;72.40
73267;BME280;61495;53.400;7.608;2022-07-29T05:20:13;101861.38;;;13.93;72.59
73267;BME280;61495;53.400;7.608;2022-07-29T05:22:38;101836.88;;;13.74;73.34
73267;BME280;61495;53.400;7.608;2022-07-29T05:25:04;101849.34;;;13.88;72.44
73267;BME280;61495;53.400;7.608;2022-07-29T05:27:29;101864.72;;;14.01;72.65
73267;BME280;61495;53.400;7.608;2022-07-29T05:29:54;101825.91;;;13.82;72.43
73267;BME280;61495;53.400;7.608;2022-07-29T05:32:20;101836.91;;;13.87;72.39
73267;BME280;61495;53.400;7.608;2022-07-29T05:34:45;101855.16;;;13.99;72.79
73267;BME280;61495;53.400;7.608;2022-07-29T05:37:11;101841.28;;;14.02;72.11
73267;BME280;61495;53.400;7.608;2022-07-29T05:39:38;101830.28;;;13.97;72.66
73267;BME280;61495;53.400;7.608;2022-07-29T05:42:08;101817.84;;;13.96;72.55
73267;BME280;61495;53.400;7.608;2022-07-29T05:44:36;101844.41;;;14.12;71.80
73267;BME280;61495;53.400;7.608;2022-07-29T05:47:02;101863.50;;;14.30;72.85
73267;BME280;61495;53.400;7.608;2022-07-29T05:49:27;101834.47;;;14.12;72.13
73267;BME280;61495;53.400;7.608;2022-07-29T05:51:52;101851.06;;;14.29;72.12
73267;BME280;61495;53.400;7.608;2022-07-29T05:54:17;101840.69;;;14.26;72.10
73267;BME280;61495;53.400;7.608;2022-07-29T05:56:43;101835.50;;;14.24;71.42
73267;BME280;61495;53.400;7.608;2022-07-29T05:59:08;101859.41;;;14.47;71.99
73267;BME280;61495;53.400;7.608;2022-07-29T06:01:33;101849.84;;;14.44;71.57
73267;BME280;61495;53.400;7.608;2022-07-29T06:03:59;101848.19;;;14.50;71.85
73267;BME280;61495;53.400;7.608;2022-07-29T06:06:24;101862.31;;;14.65;71.08
73267;BME280;61495;53.400;7.608;2022-07-29T06:08:50;101857.53;;;14.67;71.11
73267;BME280;61495;53.400;7.608;2022-07-29T06:11:15;101837.41;;;14.63;71.44
73267;BME280;61495;53.400;7.608;2022-07-29T06:13:41;101845.69;;;14.68;71.45
73267;BME280;61495;53.400;7.608;2022-07-29T06:16:06;101830.75;;;14.72;71.02
73267;BME280;61495;53.400;7.608;2022-07-29T06:18:32;101847.75;;;14.86;70.99
73267;BME280;61495;53.400;7.608;2022-07-29T06:20:57;101853.56;;;14.96;71.07
73267;BME280;61495;53.400;7.608;2022-07-29T06:23:22;101856.22;;;15.02;70.75
73267;BME280;61495;53.400;7.608;2022-07-29T06:25:48;101854.34;;;15.10;70.44
73267;BME280;61495;53.400;7.608;2022-07-29T06:28:13;101847.09;;;15.10;70.43
73267;BME280;61495;53.400;7.608;2022-07-29T06:30:39;101841.88;;;15.15;70.61
73267;BME280;61495;53.400;7.608;2022-07-29T06:33:05;101815.72;;;15.02;70.17
73267;BME280;61495;53.400;7.608;2022-07-29T06:35:32;101831.72;;;15.17;70.00
73267;BME280;61495;53.400;7.608;2022-07-29T06:37:58;101841.00;;;15.28;70.04
73267;BME280;61495;53.400;7.608;2022-07-29T06:40:23;101826.50;;;15.22;69.99
73267;BME280;61495;53.400;7.608;2022-07-29T06:43:07;101820.25;;;15.22;70.04
73267;BME280;61495;53.400;7.608;2022-07-29T06:45:36;101828.09;;;15.30;69.79
73267;BME280;61495;53.400;7.608;2022-07-29T06:48:01;101818.56;;;15.34;69.66
73267;BME280;61495;53.400;7.608;2022-07-29T06:50:27;101829.75;;;15.44;69.57
73267;BME280;61495;53.400;7.608;2022-07-29T06:52:52;101845.91;;;15.57;69.77
73267;BME280;61495;53.400;7.608;2022-07-29T06:55:18;101847.97;;;15.62;69.56
73267;BME280;61495;53.400;7.608;2022-07-29T06:57:45;101811.44;;;15.46;68.95
73267;BME280;61495;53.400;7.608;2022-07-29T07:00:11;101856.13;;;15.86;69.34
73267;BME280;61495;53.400;7.608;2022-07-29T07:02:36;101846.59;;;15.84;69.37
73267;BME280;61495;53.400;7.608;2022-07-29T07:05:02;101847.78;;;15.94;69.17
73267;BME280;61495;53.400;7.608;2022-07-29T07:07:27;101841.97;;;15.97;70.15
73267;BME280;61495;53.400;7.608;2022-07-29T07:09:53;101858.50;;;16.07;68.63
73267;BME280;61495;53.400;7.608;2022-07-29T07:12:18;101859.03;;;16.23;68.39
73267;BME280;61495;53.400;7.608;2022-07-29T07:14:43;101857.91;;;16.30;68.66
73267;BME280;61495;53.400;7.608;2022-07-29T07:17:09;101843.75;;;16.35;68.36
73267;BME280;61495;53.400;7.608;2022-07-29T07:19:34;101864.88;;;16.51;68.18
73267;BME280;61495;53.400;7.608;2022-07-29T07:22:00;101843.47;;;16.43;68.13
73267;BME280;61495;53.400;7.608;2022-07-29T07:24:25;101827.00;;;16.51;68.15
73267;BME280;61495;53.400;7.608;2022-07-29T07:26:51;101868.13;;;16.84;67.42
73267;BME280;61495;53.400;7.608;2022-07-29T07:29:16;101860.63;;;16.86;66.70
73267;BME280;61495;53.400;7.608;2022-07-29T07:31:42;101856.56;;;16.95;66.44
73267;BME280;61495;53.400;7.608;2022-07-29T07:34:08;101857.75;;;16.99;67.03
73267;BME280;61495;53.400;7.608;2022-07-29T07:36:33;101798.72;;;16.72;66.33
73267;BME280;61495;53.400;7.608;2022-07-29T07:38:59;101841.00;;;17.09;66.32
73267;BME280;61495;53.400;7.608;2022-07-29T07:41:24;101874.94;;;17.30;65.78
73267;BME280;61495;53.400;7.608;2022-07-29T07:43:50;101868.16;;;17.39;65.55
73267;BME280;61495;53.400;7.608;2022-07-29T07:46:15;101866.06;;;17.41;65.52
73267;BME280;61495;53.400;7.608;2022-07-29T07:48:41;101849.59;;;17.42;65.79
73267;BME280;61495;53.400;7.608;2022-07-29T07:51:06;101869.16;;;17.62;65.62
73267;BME280;61495;53.400;7.608;2022-07-29T07:53:32;101866.38;;;17.69;65.72
73267;BME280;61495;53.400;7.608;2022-07-29T07:55:58;101850.25;;;17.74;64.92
73267;BME280;61495;53.400;7.608;2022-07-29T07:58:23;101858.03;;;17.82;64.81
73267;BME280;61495;53.400;7.608;2022-07-29T08:00:49;101840.13;;;17.81;64.96
73267;BME280;61495;53.400;7.608;2022-07-29T08:03:14;101855.78;;;18.09;64.63
73267;BME280;61495;53.400;7.608;2022-07-29T08:05:40;101867.66;;;18.38;63.77
73267;BME280;61495;53.400;7.608;2022-07-29T08:08:06;101857.50;;;18.45;63.52
73267;BME280;61495;53.400;7.608;2022-07-29T08:10:32;101866.66;;;18.62;63.03
73267;BME280;61495;53.400;7.608;2022-07-29T08:13:16;101858.19;;;18.81;62.74
73267;BME280;61495;53.400;7.608;2022-07-29T08:15:42;101852.00;;;18.98;61.94
73267;BME280;61495;53.400;7.608;2022-07-29T08:18:09;101847.66;;;19.08;61.86
73267;BME280;61495;53.400;7.608;2022-07-29T08:20:36;101838.75;;;19.24;62.01
73267;BME280;61495;53.400;7.608;2022-07-29T08:23:03;101853.13;;;19.48;60.67
73267;BME280;61495;53.400;7.608;2022-07-29T08:25:29;101854.66;;;19.56;59.85
73267;BME280;61495;53.400;7.608;2022-07-29T08:27:55;101858.84;;;19.75;59.03
73267;BME280;61495;53.400;7.608;2022-07-29T08:30:20;101850.47;;;19.93;60.28
73267;BME280;61495;53.400;7.608;2022-07-29T08:32:47;101855.63;;;20.06;60.20
73267;BME280;61495;53.400;7.608;2022-07-29T08:35:13;101841.88;;;20.13;59.95
73267;BME280;61495;53.400;7.608;2022-07-29T08:37:39;101824.16;;;20.10;59.21
73267;BME280;61495;53.400;7.608;2022-07-29T08:40:04;101839.69;;;20.26;58.66
73267;BME280;61495;53.400;7.608;2022-07-29T08:42:31;101836.88;;;20.38;57.97
73267;BME280;61495;53.400;7.608;2022-07-29T08:44:57;101845.66;;;20.57;58.22
73267;BME280;61495;53.400;7.608;2022-07-29T08:47:23;101840.88;;;20.64;57.97
73267;BME280;61495;53.400;7.608;2022-07-29T08:49:51;101838.84;;;20.76;58.11
73267;BME280;61495;53.400;7.608;2022-07-29T08:52:16;101846.84;;;20.82;57.43
73267;BME280;61495;53.400;7.608;2022-07-29T08:54:43;101823.41;;;20.81;57.51
73267;BME280;61495;53.400;7.608;2022-07-29T08:57:12;101838.31;;;20.95;57.47
73267;BME280;61495;53.400;7.608;2022-07-29T08:59:40;101843.91;;;21.05;57.09
73267;BME280;61495;53.400;7.608;2022-07-29T09:02:12;101842.84;;;21.06;56.79
73267;BME280;61495;53.400;7.608;2022-07-29T09:04:39;101836.69;;;21.11;57.98
73267;BME280;61495;53.400;7.608;2022-07-29T09:07:05;101817.47;;;21.06;57.29
73267;BME280;61495;53.400;7.608;2022-07-29T09:09:33;101829.91;;;21.14;56.77
73267;BME280;61495;53.400;7.608;2022-07-29T09:11:59;101840.03;;;21.18;56.64
73267;BME280;61495;53.400;7.608;2022-07-29T09:14:24;101829.19;;;21.23;56.02
73267;BME280;61495;53.400;7.608;2022-07-29T09:16:55;101843.47;;;21.30;56.53
73267;BME280;61495;53.400;7.608;2022-07-29T09:21:53;101848.09;;;21.51;56.91
73267;BME280;61495;53.400;7.608;2022-07-29T09:24:36;101835.59;;;21.55;55.96
73267;BME280;61495;53.400;7.608;2022-07-29T09:27:08;101845.84;;;21.70;54.57
73267;BME280;61495;53.400;7.608;2022-07-29T09:29:33;101826.41;;;21.62;54.47
73267;BME280;61495;53.400;7.608;2022-07-29T09:31:59;101818.78;;;21.64;53.83
73267;BME280;61495;53.400;7.608;2022-07-29T09:34:26;101831.38;;;21.70;53.80
73267;BME280;61495;53.400;7.608;2022-07-29T09:36:54;101824.91;;;21.76;52.72
73267;BME280;61495;53.400;7.608;2022-07-29T09:39:46;101807.84;;;21.64;51.39
73267;BME280;61495;53.400;7.608;2022-07-29T09:42:12;101841.47;;;21.91;52.35
73267;BME280;61495;53.400;7.608;2022-07-29T09:47:08;101804.50;;;21.83;52.51
73267;BME280;61495;53.400;7.608;2022-07-29T09:52:15;101834.66;;;22.20;52.47
73267;BME280;61495;53.400;7.608;2022-07-29T09:54:41;101828.69;;;22.23;52.28
73267;BME280;61495;53.400;7.608;2022-07-29T09:57:22;101806.72;;;22.13;51.95
73267;BME280;61495;53.400;7.608;2022-07-29T10:00:08;101822.19;;;22.29;50.56
73267;BME280;61495;53.400;7.608;2022-07-29T10:02:36;101831.06;;;22.51;51.99
73267;BME280;61495;53.400;7.608;2022-07-29T10:05:09;101839.31;;;22.56;50.56
73267;BME280;61495;53.400;7.608;2022-07-29T10:07:50;101832.31;;;22.65;50.29
73267;BME280;61495;53.400;7.608;2022-07-29T10:10:31;101833.44;;;22.69;49.95
73267;BME280;61495;53.400;7.608;2022-07-29T10:13:02;101815.28;;;22.58;49.79
73267;BME280;61495;53.400;7.608;2022-07-29T10:15:30;101840.69;;;22.91;50.29
73267;BME280;61495;53.400;7.608;2022-07-29T10:17:57;101830.91;;;23.05;50.34
73267;BME280;61495;53.400;7.608;2022-07-29T10:20:24;101835.31;;;23.11;49.95
73267;BME280;61495;53.400;7.608;2022-07-29T10:22:51;101825.56;;;23.25;49.05
73267;BME280;61495;53.400;7.608;2022-07-29T10:25:17;101817.72;;;23.44;50.37
73267;BME280;61495;53.400;7.608;2022-07-29T10:27:46;101823.53;;;23.67;50.09
73267;BME280;61495;53.400;7.608;2022-07-29T10:30:14;101823.84;;;23.81;49.94
73267;BME280;61495;53.400;7.608;2022-07-29T10:37:57;101826.94;;;24.40;48.86
73267;BME280;61495;53.400;7.608;2022-07-29T10:40:39;101815.13;;;24.45;47.83
73267;BME280;61495;53.400;7.608;2022-07-29T10:43:29;101804.72;;;24.52;48.18
73267;BME280;61495;53.400;7.608;2022-07-29T10:45:58;101812.63;;;24.68;48.19
73267;BME280;61495;53.400;7.608;2022-07-29T10:48:24;101820.31;;;24.86;48.79
73267;BME280;61495;53.400;7.608;2022-07-29T10:50:54;101821.69;;;24.94;47.91
73267;BME280;61495;53.400;7.608;2022-07-29T10:53:21;101814.25;;;25.00;48.02
73267;BME280;61495;53.400;7.608;2022-07-29T10:55:47;101806.22;;;25.18;48.03
73267;BME280;61495;53.400;7.608;2022-07-29T11:00:41;101796.63;;;25.21;47.00
73267;BME280;61495;53.400;7.608;2022-07-29T11:03:06;101793.00;;;25.30;46.15
73267;BME280;61495;53.400;7.608;2022-07-29T11:06:04;101807.41;;;25.61;45.81
73267;BME280;61495;53.400;7.608;2022-07-29T11:08:30;101807.59;;;25.75;46.54
73267;BME280;61495;53.400;7.608;2022-07-29T11:11:30;101808.97;;;25.77;45.29
73267;BME280;61495;53.400;7.608;2022-07-29T11:13:55;101808.88;;;25.87;45.28
73267;BME280;61495;53.400;7.608;2022-07-29T11:16:22;101813.84;;;25.85;44.74
73267;BME280;61495;53.400;7.608;2022-07-29T11:21:43;101822.34;;;25.89;44.23
73267;BME280;61495;53.400;7.608;2022-07-29T11:24:22;101809.47;;;25.84;44.06
73267;BME280;61495;53.400;7.608;2022-07-29T11:29:40;101796.59;;;25.80;44.22
73267;BME280;61495;53.400;7.608;2022-07-29T11:32:12;101817.31;;;26.01;44.10
73267;BME280;61495;53.400;7.608;2022-07-29T11:34:39;101819.19;;;26.06;44.45
73267;BME280;61495;53.400;7.608;2022-07-29T11:48:02;101808.94;;;26.21;43.51
73267;BME280;61495;53.400;7.608;2022-07-29T11:50:34;101812.72;;;26.30;44.01
73267;BME280;61495;53.400;7.608;2022-07-29T11:53:02;101813.53;;;26.31;42.70
73267;BME280;61495;53.400;7.608;2022-07-29T11:55:28;101801.16;;;26.33;42.54
73267;BME280;61495;53.400;7.608;2022-07-29T11:57:56;101795.28;;;26.40;42.49
73267;BME280;61495;53.400;7.608;2022-07-29T12:00:33;101807.38;;;26.44;41.26
73267;BME280;61495;53.400;7.608;2022-07-29T12:03:02;101806.28;;;26.40;41.27
73267;BME280;61495;53.400;7.608;2022-07-29T12:05:43;101809.09;;;26.35;41.17
73267;BME280;61495;53.400;7.608;2022-07-29T12:08:15;101800.13;;;26.24;42.23
73267;BME280;61495;53.400;7.608;2022-07-29T12:10:42;101791.00;;;26.29;41.27
73267;BME280;61495;53.400;7.608;2022-07-29T12:13:08;101795.41;;;26.30;41.72
73267;BME280;61495;53.400;7.608;2022-07-29T12:15:35;101788.25;;;26.29;41.40
73267;BME280;61495;53.400;7.608;2022-07-29T12:18:14;101785.84;;;26.22;42.02
73267;BME280;61495;53.400;7.608;2022-07-29T12:20:40;101788.13;;;26.15;42.46
73267;BME280;61495;53.400;7.608;2022-07-29T12:23:09;101791.22;;;26.04;42.26
73267;BME280;61495;53.400;7.608;2022-07-29T12:25:37;101770.44;;;25.87;42.14
73267;BME280;61495;53.400;7.608;2022-07-29T12:28:05;101776.47;;;25.89;42.51
73267;BME280;61495;53.400;7.608;2022-07-29T12:30:44;101790.53;;;25.83;42.11
73267;BME280;61495;53.400;7.608;2022-07-29T12:35:50;101765.72;;;25.54;42.48
73267;BME280;61495;53.400;7.608;2022-07-29T12:38:17;101808.50;;;25.60;42.37
73267;BME280;61495;53.400;7.608;2022-07-29T12:40:43;101801.41;;;25.59;42.49
73267;BME280;61495;53.400;7.608;2022-07-29T12:43:18;101789.84;;;25.62;42.90
73267;BME280;61495;53.400;7.608;2022-07-29T12:45:47;101789.38;;;25.50;43.30
73267;BME280;61495;53.400;7.608;2022-07-29T12:48:14;101774.00;;;25.39;43.89
73267;BME280;61495;53.400;7.608;2022-07-29T12:50:56;101777.31;;;25.36;43.10
73267;BME280;61495;53.400;7.608;2022-07-29T12:53:21;101793.56;;;25.32;44.09
73267;BME280;61495;53.400;7.608;2022-07-29T12:55:49;101767.56;;;25.15;44.06
73267;BME280;61495;53.400;7.608;2022-07-29T12:58:45;101769.25;;;25.06;43.84
73267;BME280;61495;53.400;7.608;2022-07-29T13:01:15;101778.84;;;25.08;44.29
73267;BME280;61495;53.400;7.608;2022-07-29T13:03:57;101776.94;;;24.99;44.29
73267;BME280;61495;53.400;7.608;2022-07-29T13:09:00;101787.44;;;24.76;44.24
73267;BME280;61495;53.400;7.608;2022-07-29T13:11:34;101784.69;;;24.66;44.55
73267;BME280;61495;53.400;7.608;2022-07-29T13:13:59;101791.28;;;24.60;44.77
73267;BME280;61495;53.400;7.608;2022-07-29T13:16:25;101787.72;;;24.60;45.18
73267;BME280;61495;53.400;7.608;2022-07-29T13:19:07;101775.41;;;24.52;44.73
73267;BME280;61495;53.400;7.608;2022-07-29T13:21:32;101785.25;;;24.53;45.35
73267;BME280;61495;53.400;7.608;2022-07-29T13:23:58;101792.13;;;24.51;45.31
73267;BME280;61495;53.400;7.608;2022-07-29T13:26:23;101758.44;;;24.30;44.99
73267;BME280;61495;53.400;7.608;2022-07-29T13:28:48;101763.66;;;24.31;45.61
73267;BME280;61495;53.400;7.608;2022-07-29T13:31:14;101762.56;;;24.27;45.64
73267;BME280;61495;53.400;7.608;2022-07-29T13:33:40;101773.75;;;24.41;45.94
73267;BME280;61495;53.400;7.608;2022-07-29T13:36:05;101769.38;;;24.35;46.25
73267;BME280;61495;53.400;7.608;2022-07-29T13:38:31;101758.97;;;24.32;46.78
73267;BME280;61495;53.400;7.608;2022-07-29T13:40:56;101774.63;;;24.31;45.83
73267;BME280;61495;53.400;7.608;2022-07-29T13:43:22;101771.59;;;24.33;46.23
73267;BME280;61495;53.400;7.608;2022-07-29T13:45:47;101764.22;;;24.28;46.33